sensor_id;sensor_type;location;lat;lon;timestamp;P1;durP1;ratioP1;P2;durP2;ratioP2
13071;SDS011;6602;58.934;11.166;2023-05-21T00:01:15;7.17;;;2.50;;
13071;SDS011;6602;58.934;11.166;2023-05-21T00:06:18;7.43;;;2.93;;
13071;SDS011;6602;58.934;11.166;2023-05-21T00:11:29;4.33;;;2.77;;
13071;SDS011;6602;58.934;11.166;2023-05-21T00:16:52;4.90;;;2.63;;
13071;SDS011;6602;58.934;11.166;2023-05-21T00:21:53;5.30;;;2.60;;
13071;SDS011;6602;58.934;11.166;2023-05-21T00:27:00;4.50;;;2.33;;
13071;SDS011;6602;58.934;11.166;2023-05-21T00:32:01;5.10;;;2.80;;
13071;SDS011;6602;58.934;11.166;2023-05-21T00:37:05;3.03;;;2.60;;
13071;SDS011;6602;58.934;11.166;2023-05-21T00:42:09;3.70;;;2.80;;
13071;SDS011;6602;58.934;11.166;2023-05-21T00:47:12;4.17;;;2.90;;
13071;SDS011;6602;58.934;11.166;2023-05-21T00:52:18;4.47;;;2.73;;
13071;SDS011;6602;58.934;11.166;2023-05-21T00:57:24;5.33;;;2.70;;
13071;SDS011;6602;58.934;11.166;2023-05-21T01:02:28;8.33;;;2.63;;
13071;SDS011;6602;58.934;11.166;2023-05-21T01:07:37;5.33;;;2.87;;
13071;SDS011;6602;58.934;11.166;2023-05-21T01:12:41;6.93;;;3.10;;
13071;SDS011;6602;58.934;11.166;2023-05-21T01:17:43;4.97;;;2.90;;
13071;SDS011;6602;58.934;11.166;2023-05-21T01:22:49;3.03;;;2.63;;
13071;SDS011;6602;58.934;11.166;2023-05-21T01:27:54;4.37;;;2.97;;
13071;SDS011;6602;58.934;11.166;2023-05-21T01:33:07;5.07;;;3.00;;
13071;SDS011;6602;58.934;11.166;2023-05-21T01:43:21;9.83;;;3.27;;
13071;SDS011;6602;58.934;11.166;2023-05-21T01:48:27;4.07;;;3.00;;
13071;SDS011;6602;58.934;11.166;2023-05-21T01:53:30;4.83;;;2.67;;
13071;SDS011;6602;58.934;11.166;2023-05-21T01:58:37;5.67;;;2.80;;
13071;SDS011;6602;58.934;11.166;2023-05-21T02:03:39;5.13;;;3.07;;
13071;SDS011;6602;58.934;11.166;2023-05-21T02:09:01;4.03;;;2.73;;
13071;SDS011;6602;58.934;11.166;2023-05-21T02:14:03;5.27;;;2.77;;
13071;SDS011;6602;58.934;11.166;2023-05-21T02:19:06;5.53;;;3.07;;
13071;SDS011;6602;58.934;11.166;2023-05-21T02:24:10;4.50;;;2.87;;
13071;SDS011;6602;58.934;11.166;2023-05-21T02:29:12;6.47;;;3.10;;
13071;SDS011;6602;58.934;11.166;2023-05-21T02:34:16;4.83;;;3.10;;
13071;SDS011;6602;58.934;11.166;2023-05-21T02:39:20;5.50;;;2.93;;
13071;SDS011;6602;58.934;11.166;2023-05-21T02:44:22;4.63;;;3.20;;
13071;SDS011;6602;58.934;11.166;2023-05-21T02:49:26;6.97;;;3.30;;
13071;SDS011;6602;58.934;11.166;2023-05-21T02:54:30;4.83;;;3.10;;
13071;SDS011;6602;58.934;11.166;2023-05-21T02:59:31;3.53;;;3.20;;
13071;SDS011;6602;58.934;11.166;2023-05-21T03:04:39;3.57;;;2.97;;
13071;SDS011;6602;58.934;11.166;2023-05-21T03:09:45;8.37;;;3.60;;
13071;SDS011;6602;58.934;11.166;2023-05-21T03:14:47;4.43;;;2.87;;
13071;SDS011;6602;58.934;11.166;2023-05-21T03:19:52;5.00;;;2.83;;
13071;SDS011;6602;58.934;11.166;2023-05-21T03:24:54;4.50;;;3.00;;
13071;SDS011;6602;58.934;11.166;2023-05-21T03:30:12;5.20;;;2.20;;
13071;SDS011;6602;58.934;11.166;2023-05-21T03:35:16;4.97;;;2.60;;
13071;SDS011;6602;58.934;11.166;2023-05-21T03:40:19;3.90;;;2.80;;
13071;SDS011;6602;58.934;11.166;2023-05-21T03:45:23;5.83;;;2.97;;
13071;SDS011;6602;58.934;11.166;2023-05-21T03:50:36;3.50;;;2.50;;
13071;SDS011;6602;58.934;11.166;2023-05-21T03:55:43;3.47;;;2.73;;
13071;SDS011;6602;58.934;11.166;2023-05-21T04:00:46;6.23;;;2.63;;
13071;SDS011;6602;58.934;11.166;2023-05-21T04:05:47;4.33;;;2.67;;
13071;SDS011;6602;58.934;11.166;2023-05-21T04:10:53;3.92;;;2.45;;
13071;SDS011;6602;58.934;11.166;2023-05-21T04:15:55;3.30;;;2.27;;
13071;SDS011;6602;58.934;11.166;2023-05-21T04:21:03;4.07;;;2.30;;
13071;SDS011;6602;58.934;11.166;2023-05-21T04:26:08;5.73;;;2.40;;
13071;SDS011;6602;58.934;11.166;2023-05-21T04:31:14;4.38;;;2.60;;
13071;SDS011;6602;58.934;11.166;2023-05-21T04:36:19;3.78;;;2.40;;
13071;SDS011;6602;58.934;11.166;2023-05-21T04:41:27;4.00;;;2.17;;
13071;SDS011;6602;58.934;11.166;2023-05-21T04:46:46;4.72;;;2.40;;
13071;SDS011;6602;58.934;11.166;2023-05-21T04:51:49;1.85;;;1.70;;
13071;SDS011;6602;58.934;11.166;2023-05-21T04:56:56;3.72;;;1.80;;
13071;SDS011;6602;58.934;11.166;2023-05-21T05:01:58;4.18;;;2.20;;
13071;SDS011;6602;58.934;11.166;2023-05-21T05:07:02;4.10;;;2.03;;
13071;SDS011;6602;58.934;11.166;2023-05-21T05:12:18;4.40;;;1.90;;
13071;SDS011;6602;58.934;11.166;2023-05-21T05:17:22;3.65;;;2.33;;
13071;SDS011;6602;58.934;11.166;2023-05-21T05:22:24;2.80;;;2.33;;
13071;SDS011;6602;58.934;11.166;2023-05-21T05:27:25;5.40;;;1.92;;
13071;SDS011;6602;58.934;11.166;2023-05-21T05:32:28;6.15;;;2.10;;
13071;SDS011;6602;58.934;11.166;2023-05-21T05:37:28;3.97;;;1.88;;
13071;SDS011;6602;58.934;11.166;2023-05-21T05:42:32;3.33;;;1.50;;
13071;SDS011;6602;58.934;11.166;2023-05-21T05:47:37;2.55;;;1.75;;
13071;SDS011;6602;58.934;11.166;2023-05-21T05:52:50;4.15;;;2.05;;
13071;SDS011;6602;58.934;11.166;2023-05-21T05:57:53;3.72;;;2.03;;
13071;SDS011;6602;58.934;11.166;2023-05-21T06:03:00;5.13;;;1.83;;
13071;SDS011;6602;58.934;11.166;2023-05-21T06:08:11;3.50;;;1.90;;
13071;SDS011;6602;58.934;11.166;2023-05-21T06:13:19;4.90;;;1.90;;
13071;SDS011;6602;58.934;11.166;2023-05-21T06:18:24;1.90;;;1.48;;
13071;SDS011;6602;58.934;11.166;2023-05-21T06:23:27;3.65;;;1.48;;
13071;SDS011;6602;58.934;11.166;2023-05-21T06:28:36;2.88;;;1.75;;
13071;SDS011;6602;58.934;11.166;2023-05-21T06:33:45;2.28;;;1.90;;
13071;SDS011;6602;58.934;11.166;2023-05-21T06:38:57;2.92;;;1.98;;
13071;SDS011;6602;58.934;11.166;2023-05-21T06:44:00;3.08;;;1.60;;
13071;SDS011;6602;58.934;11.166;2023-05-21T06:49:02;3.50;;;1.73;;
13071;SDS011;6602;58.934;11.166;2023-05-21T06:54:10;2.78;;;1.70;;
13071;SDS011;6602;58.934;11.166;2023-05-21T06:59:28;2.47;;;1.67;;
13071;SDS011;6602;58.934;11.166;2023-05-21T07:04:38;5.43;;;1.63;;
13071;SDS011;6602;58.934;11.166;2023-05-21T07:09:40;3.90;;;1.70;;
13071;SDS011;6602;58.934;11.166;2023-05-21T07:14:44;2.70;;;1.65;;
13071;SDS011;6602;58.934;11.166;2023-05-21T07:19:47;2.75;;;2.00;;
13071;SDS011;6602;58.934;11.166;2023-05-21T07:24:51;4.25;;;2.03;;
13071;SDS011;6602;58.934;11.166;2023-05-21T07:29:54;2.22;;;1.77;;
13071;SDS011;6602;58.934;11.166;2023-05-21T07:34:58;2.15;;;1.92;;
13071;SDS011;6602;58.934;11.166;2023-05-21T07:40:03;3.53;;;2.25;;
13071;SDS011;6602;58.934;11.166;2023-05-21T07:45:10;5.13;;;2.58;;
13071;SDS011;6602;58.934;11.166;2023-05-21T07:50:16;4.90;;;2.40;;
13071;SDS011;6602;58.934;11.166;2023-05-21T07:55:18;4.53;;;2.47;;
13071;SDS011;6602;58.934;11.166;2023-05-21T08:00:40;6.35;;;2.85;;
13071;SDS011;6602;58.934;11.166;2023-05-21T08:05:55;4.78;;;2.88;;
13071;SDS011;6602;58.934;11.166;2023-05-21T08:10:59;2.95;;;2.50;;
13071;SDS011;6602;58.934;11.166;2023-05-21T08:16:16;6.63;;;3.00;;
13071;SDS011;6602;58.934;11.166;2023-05-21T08:21:37;5.32;;;2.83;;
13071;SDS011;6602;58.934;11.166;2023-05-21T08:27:02;5.15;;;3.13;;
13071;SDS011;6602;58.934;11.166;2023-05-21T08:32:37;6.43;;;3.03;;
13071;SDS011;6602;58.934;11.166;2023-05-21T08:37:43;5.95;;;3.35;;
13071;SDS011;6602;58.934;11.166;2023-05-21T08:42:56;4.65;;;3.17;;
13071;SDS011;6602;58.934;11.166;2023-05-21T08:48:14;5.78;;;3.88;;
13071;SDS011;6602;58.934;11.166;2023-05-21T08:53:22;3.90;;;3.08;;
13071;SDS011;6602;58.934;11.166;2023-05-21T08:58:24;6.35;;;3.17;;
13071;SDS011;6602;58.934;11.166;2023-05-21T09:03:26;5.53;;;2.90;;
13071;SDS011;6602;58.934;11.166;2023-05-21T09:08:34;3.80;;;3.05;;
13071;SDS011;6602;58.934;11.166;2023-05-21T09:13:47;6.70;;;3.40;;
13071;SDS011;6602;58.934;11.166;2023-05-21T09:18:58;7.65;;;2.95;;
13071;SDS011;6602;58.934;11.166;2023-05-21T09:24:02;4.60;;;2.80;;
13071;SDS011;6602;58.934;11.166;2023-05-21T09:29:11;5.60;;;3.08;;
13071;SDS011;6602;58.934;11.166;2023-05-21T09:34:16;8.18;;;3.92;;
13071;SDS011;6602;58.934;11.166;2023-05-21T09:39:29;5.63;;;3.00;;
13071;SDS011;6602;58.934;11.166;2023-05-21T09:44:36;5.35;;;3.55;;
13071;SDS011;6602;58.934;11.166;2023-05-21T09:49:47;5.18;;;3.30;;
13071;SDS011;6602;58.934;11.166;2023-05-21T09:54:53;7.15;;;3.60;;
13071;SDS011;6602;58.934;11.166;2023-05-21T10:00:16;6.25;;;3.58;;
13071;SDS011;6602;58.934;11.166;2023-05-21T10:05:54;5.45;;;2.90;;
13071;SDS011;6602;58.934;11.166;2023-05-21T10:10:58;5.70;;;2.75;;
13071;SDS011;6602;58.934;11.166;2023-05-21T10:16:05;5.22;;;3.08;;
13071;SDS011;6602;58.934;11.166;2023-05-21T10:21:10;4.05;;;2.97;;
13071;SDS011;6602;58.934;11.166;2023-05-21T10:26:22;5.05;;;2.85;;
13071;SDS011;6602;58.934;11.166;2023-05-21T10:31:27;8.52;;;3.22;;
13071;SDS011;6602;58.934;11.166;2023-05-21T10:36:41;6.60;;;3.63;;
13071;SDS011;6602;58.934;11.166;2023-05-21T10:41:53;5.05;;;2.80;;
13071;SDS011;6602;58.934;11.166;2023-05-21T11:04:29;4.20;;;2.78;;
13071;SDS011;6602;58.934;11.166;2023-05-21T11:09:48;6.28;;;3.33;;
13071;SDS011;6602;58.934;11.166;2023-05-21T11:14:56;6.47;;;2.92;;
13071;SDS011;6602;58.934;11.166;2023-05-21T11:20:32;4.07;;;2.70;;
13071;SDS011;6602;58.934;11.166;2023-05-21T11:25:36;3.55;;;3.22;;
13071;SDS011;6602;58.934;11.166;2023-05-21T11:30:38;8.35;;;3.25;;
13071;SDS011;6602;58.934;11.166;2023-05-21T11:40:51;4.05;;;2.70;;
13071;SDS011;6602;58.934;11.166;2023-05-21T11:46:00;4.25;;;2.70;;
13071;SDS011;6602;58.934;11.166;2023-05-21T11:51:05;8.55;;;3.80;;
13071;SDS011;6602;58.934;11.166;2023-05-21T11:56:08;4.72;;;2.70;;
13071;SDS011;6602;58.934;11.166;2023-05-21T12:01:26;5.57;;;3.40;;
13071;SDS011;6602;58.934;11.166;2023-05-21T12:06:26;6.45;;;3.40;;
13071;SDS011;6602;58.934;11.166;2023-05-21T12:11:30;3.67;;;2.70;;
13071;SDS011;6602;58.934;11.166;2023-05-21T12:16:40;4.75;;;2.45;;
13071;SDS011;6602;58.934;11.166;2023-05-21T12:21:42;3.75;;;2.72;;
13071;SDS011;6602;58.934;11.166;2023-05-21T12:26:43;5.10;;;2.83;;
13071;SDS011;6602;58.934;11.166;2023-05-21T12:31:48;3.25;;;2.58;;
13071;SDS011;6602;58.934;11.166;2023-05-21T12:36:52;7.07;;;3.03;;
13071;SDS011;6602;58.934;11.166;2023-05-21T12:41:55;4.13;;;2.72;;
13071;SDS011;6602;58.934;11.166;2023-05-21T12:46:57;6.05;;;3.05;;
13071;SDS011;6602;58.934;11.166;2023-05-21T12:52:07;5.18;;;2.83;;
13071;SDS011;6602;58.934;11.166;2023-05-21T12:57:15;6.65;;;2.70;;
13071;SDS011;6602;58.934;11.166;2023-05-21T13:02:43;4.10;;;2.70;;
13071;SDS011;6602;58.934;11.166;2023-05-21T13:08:00;3.05;;;2.30;;
13071;SDS011;6602;58.934;11.166;2023-05-21T13:13:02;5.30;;;2.70;;
13071;SDS011;6602;58.934;11.166;2023-05-21T13:18:08;5.18;;;2.80;;
13071;SDS011;6602;58.934;11.166;2023-05-21T13:23:37;3.65;;;2.60;;
13071;SDS011;6602;58.934;11.166;2023-05-21T13:29:05;8.55;;;2.53;;
13071;SDS011;6602;58.934;11.166;2023-05-21T13:34:16;3.30;;;2.60;;
13071;SDS011;6602;58.934;11.166;2023-05-21T13:39:58;4.32;;;2.83;;
13071;SDS011;6602;58.934;11.166;2023-05-21T13:45:00;5.78;;;2.67;;
13071;SDS011;6602;58.934;11.166;2023-05-21T13:50:29;5.70;;;2.90;;
13071;SDS011;6602;58.934;11.166;2023-05-21T13:56:10;3.33;;;2.65;;
13071;SDS011;6602;58.934;11.166;2023-05-21T14:01:26;5.88;;;2.63;;
13071;SDS011;6602;58.934;11.166;2023-05-21T14:07:13;3.47;;;2.30;;
13071;SDS011;6602;58.934;11.166;2023-05-21T14:12:18;4.13;;;2.40;;
13071;SDS011;6602;58.934;11.166;2023-05-21T14:17:26;4.70;;;2.33;;
13071;SDS011;6602;58.934;11.166;2023-05-21T14:22:29;3.72;;;2.45;;
13071;SDS011;6602;58.934;11.166;2023-05-21T14:27:31;4.65;;;2.42;;
13071;SDS011;6602;58.934;11.166;2023-05-21T14:32:33;3.97;;;2.58;;
13071;SDS011;6602;58.934;11.166;2023-05-21T14:37:34;6.03;;;3.03;;
13071;SDS011;6602;58.934;11.166;2023-05-21T14:42:37;2.83;;;2.50;;
13071;SDS011;6602;58.934;11.166;2023-05-21T14:47:42;6.80;;;2.60;;
13071;SDS011;6602;58.934;11.166;2023-05-21T14:52:44;5.25;;;2.97;;
13071;SDS011;6602;58.934;11.166;2023-05-21T14:57:49;6.85;;;2.90;;
13071;SDS011;6602;58.934;11.166;2023-05-21T15:02:55;5.07;;;2.72;;
13071;SDS011;6602;58.934;11.166;2023-05-21T15:07:58;5.10;;;2.65;;
13071;SDS011;6602;58.934;11.166;2023-05-21T15:13:20;4.43;;;2.50;;
13071;SDS011;6602;58.934;11.166;2023-05-21T15:18:21;3.65;;;2.70;;
13071;SDS011;6602;58.934;11.166;2023-05-21T15:23:23;5.43;;;2.75;;
13071;SDS011;6602;58.934;11.166;2023-05-21T15:28:25;8.57;;;3.78;;
13071;SDS011;6602;58.934;11.166;2023-05-21T15:33:26;4.22;;;2.50;;
13071;SDS011;6602;58.934;11.166;2023-05-21T15:38:27;4.25;;;2.80;;
13071;SDS011;6602;58.934;11.166;2023-05-21T15:43:29;3.92;;;2.22;;
13071;SDS011;6602;58.934;11.166;2023-05-21T15:48:31;8.02;;;2.90;;
13071;SDS011;6602;58.934;11.166;2023-05-21T15:53:40;5.07;;;2.80;;
13071;SDS011;6602;58.934;11.166;2023-05-21T15:58:41;6.10;;;3.03;;
13071;SDS011;6602;58.934;11.166;2023-05-21T16:03:46;6.30;;;4.65;;
13071;SDS011;6602;58.934;11.166;2023-05-21T16:08:53;9.10;;;4.88;;
13071;SDS011;6602;58.934;11.166;2023-05-21T16:13:55;6.10;;;3.83;;
13071;SDS011;6602;58.934;11.166;2023-05-21T16:19:02;11.70;;;9.02;;
13071;SDS011;6602;58.934;11.166;2023-05-21T16:24:04;8.35;;;6.22;;
13071;SDS011;6602;58.934;11.166;2023-05-21T16:29:06;4.75;;;2.42;;
13071;SDS011;6602;58.934;11.166;2023-05-21T16:34:07;4.18;;;2.63;;
13071;SDS011;6602;58.934;11.166;2023-05-21T16:39:08;3.10;;;1.98;;
13071;SDS011;6602;58.934;11.166;2023-05-21T16:44:11;4.35;;;2.22;;
13071;SDS011;6602;58.934;11.166;2023-05-21T16:49:13;7.25;;;2.35;;
13071;SDS011;6602;58.934;11.166;2023-05-21T16:54:15;2.28;;;1.90;;
13071;SDS011;6602;58.934;11.166;2023-05-21T16:59:20;3.17;;;1.95;;
13071;SDS011;6602;58.934;11.166;2023-05-21T17:04:21;3.30;;;1.70;;
13071;SDS011;6602;58.934;11.166;2023-05-21T17:09:22;1.88;;;1.52;;
13071;SDS011;6602;58.934;11.166;2023-05-21T17:14:31;2.83;;;1.70;;
13071;SDS011;6602;58.934;11.166;2023-05-21T17:19:36;1.42;;;1.33;;
13071;SDS011;6602;58.934;11.166;2023-05-21T17:24:40;4.28;;;1.80;;
13071;SDS011;6602;58.934;11.166;2023-05-21T17:29:46;5.10;;;1.67;;
13071;SDS011;6602;58.934;11.166;2023-05-21T17:34:49;3.75;;;1.67;;
13071;SDS011;6602;58.934;11.166;2023-05-21T17:39:52;2.80;;;1.88;;
13071;SDS011;6602;58.934;11.166;2023-05-21T17:45:05;2.88;;;1.55;;
13071;SDS011;6602;58.934;11.166;2023-05-21T17:50:10;5.63;;;1.50;;
13071;SDS011;6602;58.934;11.166;2023-05-21T17:55:11;3.00;;;1.80;;
13071;SDS011;6602;58.934;11.166;2023-05-21T18:00:16;2.67;;;1.65;;
13071;SDS011;6602;58.934;11.166;2023-05-21T18:05:20;1.65;;;1.50;;
13071;SDS011;6602;58.934;11.166;2023-05-21T18:10:46;1.33;;;1.05;;
13071;SDS011;6602;58.934;11.166;2023-05-21T18:15:50;5.63;;;1.50;;
13071;SDS011;6602;58.934;11.166;2023-05-21T18:20:52;2.58;;;1.55;;
13071;SDS011;6602;58.934;11.166;2023-05-21T18:25:55;2.90;;;1.63;;
13071;SDS011;6602;58.934;11.166;2023-05-21T18:31:10;2.67;;;1.50;;
13071;SDS011;6602;58.934;11.166;2023-05-21T18:36:11;2.90;;;1.73;;
13071;SDS011;6602;58.934;11.166;2023-05-21T18:41:12;7.35;;;1.60;;
13071;SDS011;6602;58.934;11.166;2023-05-21T18:46:21;3.97;;;2.00;;
13071;SDS011;6602;58.934;11.166;2023-05-21T18:51:42;3.20;;;1.75;;
13071;SDS011;6602;58.934;11.166;2023-05-21T18:56:44;2.90;;;1.75;;
13071;SDS011;6602;58.934;11.166;2023-05-21T19:01:47;2.72;;;1.40;;
13071;SDS011;6602;58.934;11.166;2023-05-21T19:06:49;2.67;;;1.80;;
13071;SDS011;6602;58.934;11.166;2023-05-21T19:11:53;2.45;;;1.88;;
13071;SDS011;6602;58.934;11.166;2023-05-21T19:17:04;2.63;;;1.55;;
13071;SDS011;6602;58.934;11.166;2023-05-21T19:22:12;3.42;;;2.08;;
13071;SDS011;6602;58.934;11.166;2023-05-21T19:27:16;3.35;;;1.58;;
13071;SDS011;6602;58.934;11.166;2023-05-21T19:32:24;2.63;;;1.75;;
13071;SDS011;6602;58.934;11.166;2023-05-21T19:37:31;2.50;;;1.88;;
13071;SDS011;6602;58.934;11.166;2023-05-21T19:42:34;2.95;;;1.95;;
13071;SDS011;6602;58.934;11.166;2023-05-21T19:47:36;4.78;;;2.03;;
13071;SDS011;6602;58.934;11.166;2023-05-21T19:52:55;4.10;;;2.33;;
13071;SDS011;6602;58.934;11.166;2023-05-21T19:57:58;2.97;;;2.00;;
13071;SDS011;6602;58.934;11.166;2023-05-21T20:03:00;2.78;;;1.98;;
13071;SDS011;6602;58.934;11.166;2023-05-21T20:08:12;4.90;;;2.28;;
13071;SDS011;6602;58.934;11.166;2023-05-21T20:13:20;2.97;;;2.00;;
13071;SDS011;6602;58.934;11.166;2023-05-21T20:18:50;3.97;;;2.55;;
13071;SDS011;6602;58.934;11.166;2023-05-21T20:23:56;4.05;;;2.40;;
13071;SDS011;6602;58.934;11.166;2023-05-21T20:29:35;3.97;;;2.38;;
13071;SDS011;6602;58.934;11.166;2023-05-21T20:34:39;3.22;;;2.40;;
13071;SDS011;6602;58.934;11.166;2023-05-21T20:39:40;3.92;;;2.30;;
13071;SDS011;6602;58.934;11.166;2023-05-21T20:44:44;4.18;;;2.22;;
13071;SDS011;6602;58.934;11.166;2023-05-21T20:49:48;4.88;;;2.28;;
13071;SDS011;6602;58.934;11.166;2023-05-21T20:54:55;2.35;;;2.13;;
13071;SDS011;6602;58.934;11.166;2023-05-21T21:00:01;3.80;;;2.22;;
13071;SDS011;6602;58.934;11.166;2023-05-21T21:05:07;5.05;;;2.47;;
13071;SDS011;6602;58.934;11.166;2023-05-21T21:10:28;4.53;;;2.00;;
13071;SDS011;6602;58.934;11.166;2023-05-21T21:15:52;5.60;;;2.47;;
13071;SDS011;6602;58.934;11.166;2023-05-21T21:21:01;4.72;;;2.10;;
13071;SDS011;6602;58.934;11.166;2023-05-21T21:26:03;2.85;;;1.95;;
13071;SDS011;6602;58.934;11.166;2023-05-21T21:31:17;4.65;;;2.10;;
13071;SDS011;6602;58.934;11.166;2023-05-21T21:36:18;2.65;;;2.22;;
13071;SDS011;6602;58.934;11.166;2023-05-21T21:41:22;3.10;;;2.33;;
13071;SDS011;6602;58.934;11.166;2023-05-21T21:46:28;3.50;;;2.40;;
13071;SDS011;6602;58.934;11.166;2023-05-21T21:51:29;3.40;;;2.35;;
13071;SDS011;6602;58.934;11.166;2023-05-21T21:56:31;3.50;;;2.38;;
13071;SDS011;6602;58.934;11.166;2023-05-21T22:01:32;4.22;;;2.00;;
13071;SDS011;6602;58.934;11.166;2023-05-21T22:06:34;3.20;;;2.38;;
13071;SDS011;6602;58.934;11.166;2023-05-21T22:11:41;3.22;;;2.50;;
13071;SDS011;6602;58.934;11.166;2023-05-21T22:16:44;3.05;;;2.40;;
13071;SDS011;6602;58.934;11.166;2023-05-21T22:21:46;5.65;;;2.70;;
13071;SDS011;6602;58.934;11.166;2023-05-21T22:26:47;3.58;;;2.83;;
13071;SDS011;6602;58.934;11.166;2023-05-21T22:31:50;5.00;;;2.75;;
13071;SDS011;6602;58.934;11.166;2023-05-21T22:36:52;4.50;;;2.50;;
13071;SDS011;6602;58.934;11.166;2023-05-21T22:41:53;4.18;;;2.80;;
13071;SDS011;6602;58.934;11.166;2023-05-21T22:46:55;3.97;;;2.70;;
13071;SDS011;6602;58.934;11.166;2023-05-21T22:52:00;3.85;;;2.42;;
13071;SDS011;6602;58.934;11.166;2023-05-21T22:57:05;4.68;;;2.65;;
13071;SDS011;6602;58.934;11.166;2023-05-21T23:02:06;3.78;;;2.90;;
13071;SDS011;6602;58.934;11.166;2023-05-21T23:07:08;3.33;;;2.38;;
13071;SDS011;6602;58.934;11.166;2023-05-21T23:12:09;2.90;;;2.53;;
13071;SDS011;6602;58.934;11.166;2023-05-21T23:17:11;4.50;;;2.53;;
13071;SDS011;6602;58.934;11.166;2023-05-21T23:22:12;2.88;;;2.28;;
13071;SDS011;6602;58.934;11.166;2023-05-21T23:27:22;5.07;;;2.50;;
13071;SDS011;6602;58.934;11.166;2023-05-21T23:32:29;3.77;;;2.30;;
13071;SDS011;6602;58.934;11.166;2023-05-21T23:37:30;6.22;;;2.63;;
13071;SDS011;6602;58.934;11.166;2023-05-21T23:42:31;5.05;;;2.67;;
13071;SDS011;6602;58.934;11.166;2023-05-21T23:47:35;4.07;;;2.95;;
13071;SDS011;6602;58.934;11.166;2023-05-21T23:52:36;3.85;;;2.67;;
13071;SDS011;6602;58.934;11.166;2023-05-21T23:57:37;4.22;;;2.50;;
